sensor_id;sensor_type;location;lat;lon;timestamp;P1;durP1;ratioP1;P2;durP2;ratioP2
1402;SDS011;696;48.546;9.896;2023-02-01T00:01:36;4.97;;;1.80;;
1402;SDS011;696;48.546;9.896;2023-02-01T00:04:01;2.95;;;2.30;;
1402;SDS011;696;48.546;9.896;2023-02-01T00:06:27;1.90;;;1.52;;
1402;SDS011;696;48.546;9.896;2023-02-01T00:08:52;7.82;;;2.15;;
1402;SDS011;696;48.546;9.896;2023-02-01T00:11:19;3.13;;;2.03;;
1402;SDS011;696;48.546;9.896;2023-02-01T00:13:45;6.90;;;2.45;;
1402;SDS011;696;48.546;9.896;2023-02-01T00:16:11;3.47;;;1.95;;
1402;SDS011;696;48.546;9.896;2023-02-01T00:18:42;3.15;;;2.20;;
1402;SDS011;696;48.546;9.896;2023-02-01T00:21:09;7.93;;;2.60;;
1402;SDS011;696;48.546;9.896;2023-02-01T00:23:35;3.03;;;2.08;;
1402;SDS011;696;48.546;9.896;2023-02-01T00:26:02;2.55;;;1.80;;
1402;SDS011;696;48.546;9.896;2023-02-01T00:28:31;2.47;;;1.80;;
1402;SDS011;696;48.546;9.896;2023-02-01T00:30:58;3.95;;;2.22;;
1402;SDS011;696;48.546;9.896;2023-02-01T00:33:27;3.47;;;1.90;;
1402;SDS011;696;48.546;9.896;2023-02-01T00:36:00;3.78;;;1.83;;
1402;SDS011;696;48.546;9.896;2023-02-01T00:38:27;2.30;;;1.73;;
1402;SDS011;696;48.546;9.896;2023-02-01T00:40:53;2.35;;;1.60;;
1402;SDS011;696;48.546;9.896;2023-02-01T00:43:18;2.60;;;1.73;;
1402;SDS011;696;48.546;9.896;2023-02-01T00:45:45;6.20;;;2.00;;
1402;SDS011;696;48.546;9.896;2023-02-01T00:48:11;4.85;;;2.10;;
1402;SDS011;696;48.546;9.896;2023-02-01T00:50:40;3.17;;;2.03;;
1402;SDS011;696;48.546;9.896;2023-02-01T00:53:06;2.33;;;1.73;;
1402;SDS011;696;48.546;9.896;2023-02-01T00:55:32;2.17;;;1.70;;
1402;SDS011;696;48.546;9.896;2023-02-01T00:57:57;3.42;;;2.15;;
1402;SDS011;696;48.546;9.896;2023-02-01T01:00:22;2.40;;;1.83;;
1402;SDS011;696;48.546;9.896;2023-02-01T01:02:48;3.42;;;1.83;;
1402;SDS011;696;48.546;9.896;2023-02-01T01:05:13;1.58;;;1.42;;
1402;SDS011;696;48.546;9.896;2023-02-01T01:07:38;8.68;;;1.83;;
1402;SDS011;696;48.546;9.896;2023-02-01T01:10:04;2.75;;;1.73;;
1402;SDS011;696;48.546;9.896;2023-02-01T01:12:30;3.38;;;1.83;;
1402;SDS011;696;48.546;9.896;2023-02-01T01:14:55;2.13;;;1.52;;
1402;SDS011;696;48.546;9.896;2023-02-01T01:17:20;1.52;;;1.25;;
1402;SDS011;696;48.546;9.896;2023-02-01T01:19:46;1.85;;;1.25;;
1402;SDS011;696;48.546;9.896;2023-02-01T01:22:11;1.48;;;1.23;;
1402;SDS011;696;48.546;9.896;2023-02-01T01:24:36;1.30;;;1.20;;
1402;SDS011;696;48.546;9.896;2023-02-01T01:27:02;4.07;;;1.30;;
1402;SDS011;696;48.546;9.896;2023-02-01T01:29:27;1.60;;;1.50;;
1402;SDS011;696;48.546;9.896;2023-02-01T01:31:53;2.00;;;1.35;;
1402;SDS011;696;48.546;9.896;2023-02-01T01:34:18;1.27;;;1.17;;
1402;SDS011;696;48.546;9.896;2023-02-01T01:36:43;1.55;;;1.15;;
1402;SDS011;696;48.546;9.896;2023-02-01T01:39:09;3.08;;;1.73;;
1402;SDS011;696;48.546;9.896;2023-02-01T01:41:34;1.83;;;1.50;;
1402;SDS011;696;48.546;9.896;2023-02-01T01:44:04;1.50;;;1.35;;
1402;SDS011;696;48.546;9.896;2023-02-01T01:46:31;1.35;;;1.25;;
1402;SDS011;696;48.546;9.896;2023-02-01T01:49:09;1.67;;;1.45;;
1402;SDS011;696;48.546;9.896;2023-02-01T01:51:40;1.50;;;1.23;;
1402;SDS011;696;48.546;9.896;2023-02-01T01:54:26;2.60;;;1.50;;
1402;SDS011;696;48.546;9.896;2023-02-01T01:57:04;1.95;;;1.30;;
1402;SDS011;696;48.546;9.896;2023-02-01T01:59:35;1.65;;;1.25;;
1402;SDS011;696;48.546;9.896;2023-02-01T02:02:01;1.38;;;1.08;;
1402;SDS011;696;48.546;9.896;2023-02-01T02:04:26;1.23;;;1.10;;
1402;SDS011;696;48.546;9.896;2023-02-01T02:06:54;1.20;;;1.00;;
1402;SDS011;696;48.546;9.896;2023-02-01T02:09:22;1.38;;;1.27;;
1402;SDS011;696;48.546;9.896;2023-02-01T02:11:48;1.85;;;1.45;;
1402;SDS011;696;48.546;9.896;2023-02-01T02:14:13;1.65;;;1.30;;
1402;SDS011;696;48.546;9.896;2023-02-01T02:33:58;1.60;;;1.20;;
1402;SDS011;696;48.546;9.896;2023-02-01T02:42:02;1.40;;;1.25;;
1402;SDS011;696;48.546;9.896;2023-02-01T02:53:19;1.20;;;1.10;;
1402;SDS011;696;48.546;9.896;2023-02-01T02:56:06;1.15;;;1.05;;
1402;SDS011;696;48.546;9.896;2023-02-01T02:58:51;2.05;;;1.30;;
1402;SDS011;696;48.546;9.896;2023-02-01T03:01:35;1.10;;;1.00;;
1402;SDS011;696;48.546;9.896;2023-02-01T03:04:21;1.25;;;1.17;;
1402;SDS011;696;48.546;9.896;2023-02-01T03:06:48;6.18;;;1.52;;
1402;SDS011;696;48.546;9.896;2023-02-01T03:09:16;1.40;;;1.27;;
1402;SDS011;696;48.546;9.896;2023-02-01T03:12:07;1.27;;;1.10;;
1402;SDS011;696;48.546;9.896;2023-02-01T03:14:54;1.30;;;1.20;;
1402;SDS011;696;48.546;9.896;2023-02-01T03:17:26;1.23;;;1.10;;
1402;SDS011;696;48.546;9.896;2023-02-01T03:19:55;1.40;;;1.30;;
1402;SDS011;696;48.546;9.896;2023-02-01T03:22:24;1.33;;;1.17;;
1402;SDS011;696;48.546;9.896;2023-02-01T03:27:35;1.55;;;1.42;;
1402;SDS011;696;48.546;9.896;2023-02-01T03:32:36;3.67;;;1.67;;
1402;SDS011;696;48.546;9.896;2023-02-01T03:35:44;2.22;;;1.45;;
1402;SDS011;696;48.546;9.896;2023-02-01T03:43:48;1.35;;;1.25;;
1402;SDS011;696;48.546;9.896;2023-02-01T03:46:20;1.25;;;1.13;;
1402;SDS011;696;48.546;9.896;2023-02-01T03:48:49;2.55;;;1.70;;
1402;SDS011;696;48.546;9.896;2023-02-01T03:51:16;1.55;;;1.45;;
1402;SDS011;696;48.546;9.896;2023-02-01T03:53:42;1.40;;;1.30;;
1402;SDS011;696;48.546;9.896;2023-02-01T03:56:10;1.92;;;1.55;;
1402;SDS011;696;48.546;9.896;2023-02-01T03:58:36;2.05;;;1.50;;
1402;SDS011;696;48.546;9.896;2023-02-01T04:01:02;2.92;;;1.75;;
1402;SDS011;696;48.546;9.896;2023-02-01T04:03:27;1.65;;;1.50;;
1402;SDS011;696;48.546;9.896;2023-02-01T04:05:53;1.60;;;1.38;;
1402;SDS011;696;48.546;9.896;2023-02-01T04:08:19;3.08;;;2.25;;
1402;SDS011;696;48.546;9.896;2023-02-01T04:10:45;3.40;;;1.60;;
1402;SDS011;696;48.546;9.896;2023-02-01T04:13:11;2.65;;;1.65;;
1402;SDS011;696;48.546;9.896;2023-02-01T04:15:36;1.88;;;1.65;;
1402;SDS011;696;48.546;9.896;2023-02-01T04:18:02;1.83;;;1.73;;
1402;SDS011;696;48.546;9.896;2023-02-01T04:20:27;1.70;;;1.40;;
1402;SDS011;696;48.546;9.896;2023-02-01T04:22:52;2.17;;;1.60;;
1402;SDS011;696;48.546;9.896;2023-02-01T04:25:18;1.45;;;1.35;;
1402;SDS011;696;48.546;9.896;2023-02-01T04:27:43;1.60;;;1.23;;
1402;SDS011;696;48.546;9.896;2023-02-01T04:30:09;2.10;;;1.50;;
1402;SDS011;696;48.546;9.896;2023-02-01T04:32:35;1.92;;;1.52;;
1402;SDS011;696;48.546;9.896;2023-02-01T04:35:01;2.00;;;1.67;;
1402;SDS011;696;48.546;9.896;2023-02-01T04:37:27;2.78;;;1.70;;
1402;SDS011;696;48.546;9.896;2023-02-01T04:39:53;2.42;;;2.10;;
1402;SDS011;696;48.546;9.896;2023-02-01T04:42:19;2.20;;;1.40;;
1402;SDS011;696;48.546;9.896;2023-02-01T04:44:44;2.25;;;1.73;;
1402;SDS011;696;48.546;9.896;2023-02-01T04:47:09;1.85;;;1.63;;
1402;SDS011;696;48.546;9.896;2023-02-01T04:49:35;2.00;;;1.80;;
1402;SDS011;696;48.546;9.896;2023-02-01T04:52:00;1.65;;;1.55;;
1402;SDS011;696;48.546;9.896;2023-02-01T04:54:25;1.70;;;1.60;;
1402;SDS011;696;48.546;9.896;2023-02-01T04:56:51;2.70;;;1.92;;
1402;SDS011;696;48.546;9.896;2023-02-01T04:59:16;4.10;;;2.28;;
1402;SDS011;696;48.546;9.896;2023-02-01T05:01:41;2.63;;;2.13;;
1402;SDS011;696;48.546;9.896;2023-02-01T05:04:07;3.58;;;2.20;;
1402;SDS011;696;48.546;9.896;2023-02-01T05:06:32;1.88;;;1.67;;
1402;SDS011;696;48.546;9.896;2023-02-01T05:08:57;3.28;;;1.92;;
1402;SDS011;696;48.546;9.896;2023-02-01T05:11:23;2.67;;;1.63;;
1402;SDS011;696;48.546;9.896;2023-02-01T05:14:06;2.72;;;1.38;;
1402;SDS011;696;48.546;9.896;2023-02-01T05:16:32;3.17;;;1.60;;
1402;SDS011;696;48.546;9.896;2023-02-01T05:18:57;1.90;;;1.65;;
1402;SDS011;696;48.546;9.896;2023-02-01T05:21:23;2.00;;;1.70;;
1402;SDS011;696;48.546;9.896;2023-02-01T05:23:48;2.67;;;1.63;;
1402;SDS011;696;48.546;9.896;2023-02-01T05:26:32;1.77;;;1.67;;
1402;SDS011;696;48.546;9.896;2023-02-01T05:28:58;2.42;;;1.65;;
1402;SDS011;696;48.546;9.896;2023-02-01T05:31:24;1.52;;;1.40;;
1402;SDS011;696;48.546;9.896;2023-02-01T05:33:49;1.50;;;1.38;;
1402;SDS011;696;48.546;9.896;2023-02-01T05:36:14;3.47;;;1.33;;
1402;SDS011;696;48.546;9.896;2023-02-01T05:38:40;2.20;;;1.58;;
1402;SDS011;696;48.546;9.896;2023-02-01T05:41:05;2.03;;;1.60;;
1402;SDS011;696;48.546;9.896;2023-02-01T05:43:31;2.63;;;1.35;;
1402;SDS011;696;48.546;9.896;2023-02-01T05:45:56;3.38;;;1.40;;
1402;SDS011;696;48.546;9.896;2023-02-01T05:48:22;1.50;;;1.40;;
1402;SDS011;696;48.546;9.896;2023-02-01T05:50:47;2.10;;;1.48;;
1402;SDS011;696;48.546;9.896;2023-02-01T05:53:12;3.10;;;1.10;;
1402;SDS011;696;48.546;9.896;2023-02-01T05:55:38;1.40;;;1.30;;
1402;SDS011;696;48.546;9.896;2023-02-01T05:58:03;1.60;;;1.40;;
1402;SDS011;696;48.546;9.896;2023-02-01T06:00:29;1.58;;;1.40;;
1402;SDS011;696;48.546;9.896;2023-02-01T06:02:55;1.95;;;1.23;;
1402;SDS011;696;48.546;9.896;2023-02-01T06:05:20;1.40;;;1.30;;
1402;SDS011;696;48.546;9.896;2023-02-01T06:07:46;2.00;;;1.35;;
1402;SDS011;696;48.546;9.896;2023-02-01T06:10:11;2.17;;;1.45;;
1402;SDS011;696;48.546;9.896;2023-02-01T06:12:37;1.35;;;1.10;;
1402;SDS011;696;48.546;9.896;2023-02-01T06:15:02;2.70;;;1.73;;
1402;SDS011;696;48.546;9.896;2023-02-01T06:17:27;2.08;;;1.27;;
1402;SDS011;696;48.546;9.896;2023-02-01T06:19:53;2.47;;;1.40;;
1402;SDS011;696;48.546;9.896;2023-02-01T06:22:18;13.77;;;1.85;;
1402;SDS011;696;48.546;9.896;2023-02-01T06:24:44;2.53;;;1.33;;
1402;SDS011;696;48.546;9.896;2023-02-01T06:27:09;3.85;;;1.40;;
1402;SDS011;696;48.546;9.896;2023-02-01T06:29:35;1.83;;;1.40;;
1402;SDS011;696;48.546;9.896;2023-02-01T06:32:00;1.17;;;1.05;;
1402;SDS011;696;48.546;9.896;2023-02-01T06:34:26;2.42;;;1.20;;
1402;SDS011;696;48.546;9.896;2023-02-01T06:36:51;2.35;;;1.30;;
1402;SDS011;696;48.546;9.896;2023-02-01T06:39:16;2.97;;;1.27;;
1402;SDS011;696;48.546;9.896;2023-02-01T06:41:45;1.52;;;1.35;;
1402;SDS011;696;48.546;9.896;2023-02-01T06:44:11;2.78;;;1.60;;
1402;SDS011;696;48.546;9.896;2023-02-01T06:46:36;2.88;;;1.00;;
1402;SDS011;696;48.546;9.896;2023-02-01T06:49:01;2.53;;;1.48;;
1402;SDS011;696;48.546;9.896;2023-02-01T06:51:27;2.35;;;1.60;;
1402;SDS011;696;48.546;9.896;2023-02-01T06:53:56;2.67;;;1.50;;
1402;SDS011;696;48.546;9.896;2023-02-01T06:56:21;2.03;;;1.52;;
1402;SDS011;696;48.546;9.896;2023-02-01T06:58:47;6.03;;;1.75;;
1402;SDS011;696;48.546;9.896;2023-02-01T07:01:13;4.18;;;2.03;;
1402;SDS011;696;48.546;9.896;2023-02-01T07:03:38;3.83;;;1.63;;
1402;SDS011;696;48.546;9.896;2023-02-01T07:06:04;4.65;;;1.70;;
1402;SDS011;696;48.546;9.896;2023-02-01T07:08:30;1.25;;;1.15;;
1402;SDS011;696;48.546;9.896;2023-02-01T07:11:01;4.18;;;1.67;;
1402;SDS011;696;48.546;9.896;2023-02-01T07:13:27;1.50;;;1.40;;
1402;SDS011;696;48.546;9.896;2023-02-01T07:15:52;2.58;;;1.73;;
1402;SDS011;696;48.546;9.896;2023-02-01T07:18:18;2.55;;;1.55;;
1402;SDS011;696;48.546;9.896;2023-02-01T07:20:43;1.42;;;1.33;;
1402;SDS011;696;48.546;9.896;2023-02-01T07:23:14;2.25;;;1.75;;
1402;SDS011;696;48.546;9.896;2023-02-01T07:25:40;2.30;;;1.80;;
1402;SDS011;696;48.546;9.896;2023-02-01T07:28:05;2.08;;;1.60;;
1402;SDS011;696;48.546;9.896;2023-02-01T07:30:30;3.67;;;1.75;;
1402;SDS011;696;48.546;9.896;2023-02-01T07:32:56;2.65;;;1.50;;
1402;SDS011;696;48.546;9.896;2023-02-01T07:35:24;2.90;;;1.33;;
1402;SDS011;696;48.546;9.896;2023-02-01T07:37:49;2.13;;;1.55;;
1402;SDS011;696;48.546;9.896;2023-02-01T07:40:15;1.75;;;1.65;;
1402;SDS011;696;48.546;9.896;2023-02-01T07:42:40;3.88;;;1.75;;
1402;SDS011;696;48.546;9.896;2023-02-01T07:45:05;2.38;;;1.50;;
1402;SDS011;696;48.546;9.896;2023-02-01T07:47:31;2.45;;;1.35;;
1402;SDS011;696;48.546;9.896;2023-02-01T07:49:56;1.75;;;1.48;;
1402;SDS011;696;48.546;9.896;2023-02-01T07:52:22;2.63;;;1.52;;
1402;SDS011;696;48.546;9.896;2023-02-01T07:54:47;2.33;;;1.63;;
1402;SDS011;696;48.546;9.896;2023-02-01T07:57:12;2.88;;;1.63;;
1402;SDS011;696;48.546;9.896;2023-02-01T07:59:38;2.47;;;1.63;;
1402;SDS011;696;48.546;9.896;2023-02-01T08:02:26;1.48;;;1.38;;
1402;SDS011;696;48.546;9.896;2023-02-01T08:04:51;1.55;;;1.40;;
1402;SDS011;696;48.546;9.896;2023-02-01T08:07:16;3.20;;;1.67;;
1402;SDS011;696;48.546;9.896;2023-02-01T08:09:42;1.30;;;1.20;;
1402;SDS011;696;48.546;9.896;2023-02-01T08:12:07;1.60;;;1.40;;
1402;SDS011;696;48.546;9.896;2023-02-01T08:14:32;2.42;;;1.42;;
1402;SDS011;696;48.546;9.896;2023-02-01T08:16:58;1.52;;;1.27;;
1402;SDS011;696;48.546;9.896;2023-02-01T08:19:23;4.25;;;1.70;;
1402;SDS011;696;48.546;9.896;2023-02-01T08:21:48;3.50;;;1.73;;
1402;SDS011;696;48.546;9.896;2023-02-01T08:24:14;3.38;;;1.65;;
1402;SDS011;696;48.546;9.896;2023-02-01T08:26:40;1.52;;;1.35;;
1402;SDS011;696;48.546;9.896;2023-02-01T08:29:06;1.65;;;1.33;;
1402;SDS011;696;48.546;9.896;2023-02-01T08:31:32;1.83;;;1.23;;
1402;SDS011;696;48.546;9.896;2023-02-01T08:33:58;2.35;;;1.85;;
1402;SDS011;696;48.546;9.896;2023-02-01T08:36:25;2.60;;;1.30;;
1402;SDS011;696;48.546;9.896;2023-02-01T08:38:51;1.95;;;1.27;;
1402;SDS011;696;48.546;9.896;2023-02-01T08:41:18;1.92;;;1.45;;
1402;SDS011;696;48.546;9.896;2023-02-01T08:43:45;1.75;;;1.23;;
1402;SDS011;696;48.546;9.896;2023-02-01T08:46:12;2.25;;;1.52;;
1402;SDS011;696;48.546;9.896;2023-02-01T08:48:38;3.05;;;1.60;;
1402;SDS011;696;48.546;9.896;2023-02-01T08:51:05;2.78;;;1.48;;
1402;SDS011;696;48.546;9.896;2023-02-01T08:53:32;1.65;;;1.35;;
1402;SDS011;696;48.546;9.896;2023-02-01T08:55:57;3.30;;;1.60;;
1402;SDS011;696;48.546;9.896;2023-02-01T08:58:23;3.78;;;1.65;;
1402;SDS011;696;48.546;9.896;2023-02-01T09:00:48;3.70;;;1.88;;
1402;SDS011;696;48.546;9.896;2023-02-01T09:03:14;2.42;;;1.50;;
1402;SDS011;696;48.546;9.896;2023-02-01T09:05:40;2.85;;;2.00;;
1402;SDS011;696;48.546;9.896;2023-02-01T09:08:06;2.80;;;2.08;;
1402;SDS011;696;48.546;9.896;2023-02-01T09:10:31;7.00;;;1.65;;
1402;SDS011;696;48.546;9.896;2023-02-01T09:12:57;3.65;;;1.73;;
1402;SDS011;696;48.546;9.896;2023-02-01T09:15:22;5.50;;;2.17;;
1402;SDS011;696;48.546;9.896;2023-02-01T09:17:47;4.95;;;1.80;;
1402;SDS011;696;48.546;9.896;2023-02-01T09:20:14;4.10;;;2.00;;
1402;SDS011;696;48.546;9.896;2023-02-01T09:22:39;13.27;;;2.67;;
1402;SDS011;696;48.546;9.896;2023-02-01T09:25:05;7.32;;;2.40;;
1402;SDS011;696;48.546;9.896;2023-02-01T09:27:31;13.80;;;1.80;;
1402;SDS011;696;48.546;9.896;2023-02-01T09:29:56;6.00;;;1.88;;
1402;SDS011;696;48.546;9.896;2023-02-01T09:32:22;2.58;;;1.55;;
1402;SDS011;696;48.546;9.896;2023-02-01T09:34:48;5.38;;;2.22;;
1402;SDS011;696;48.546;9.896;2023-02-01T09:37:14;3.90;;;2.13;;
1402;SDS011;696;48.546;9.896;2023-02-01T09:39:40;2.60;;;1.50;;
1402;SDS011;696;48.546;9.896;2023-02-01T09:45:21;4.38;;;1.80;;
1402;SDS011;696;48.546;9.896;2023-02-01T09:47:51;5.68;;;2.25;;
1402;SDS011;696;48.546;9.896;2023-02-01T09:50:20;7.22;;;2.10;;
1402;SDS011;696;48.546;9.896;2023-02-01T09:52:51;12.27;;;1.90;;
1402;SDS011;696;48.546;9.896;2023-02-01T09:55:20;6.13;;;1.80;;
1402;SDS011;696;48.546;9.896;2023-02-01T10:00:57;3.53;;;1.90;;
1402;SDS011;696;48.546;9.896;2023-02-01T10:03:24;4.55;;;1.85;;
1402;SDS011;696;48.546;9.896;2023-02-01T10:11:13;6.15;;;1.92;;
1402;SDS011;696;48.546;9.896;2023-02-01T10:13:56;3.22;;;1.90;;
1402;SDS011;696;48.546;9.896;2023-02-01T10:16:30;1.95;;;1.40;;
1402;SDS011;696;48.546;9.896;2023-02-01T10:21:59;5.97;;;2.03;;
1402;SDS011;696;48.546;9.896;2023-02-01T10:29:46;4.68;;;2.10;;
1402;SDS011;696;48.546;9.896;2023-02-01T10:32:16;4.68;;;1.95;;
1402;SDS011;696;48.546;9.896;2023-02-01T10:34:50;4.07;;;1.75;;
1402;SDS011;696;48.546;9.896;2023-02-01T10:39:52;6.38;;;2.53;;
1402;SDS011;696;48.546;9.896;2023-02-01T10:42:20;4.70;;;2.15;;
1402;SDS011;696;48.546;9.896;2023-02-01T10:44:48;11.38;;;2.55;;
1402;SDS011;696;48.546;9.896;2023-02-01T10:47:14;8.13;;;2.60;;
1402;SDS011;696;48.546;9.896;2023-02-01T10:49:47;3.47;;;2.00;;
1402;SDS011;696;48.546;9.896;2023-02-01T10:52:38;9.55;;;2.20;;
1402;SDS011;696;48.546;9.896;2023-02-01T10:55:34;3.88;;;1.98;;
1402;SDS011;696;48.546;9.896;2023-02-01T10:58:04;4.78;;;2.28;;
1402;SDS011;696;48.546;9.896;2023-02-01T11:00:36;7.55;;;2.60;;
1402;SDS011;696;48.546;9.896;2023-02-01T11:06:21;8.52;;;2.30;;
1402;SDS011;696;48.546;9.896;2023-02-01T11:08:53;3.75;;;2.05;;
1402;SDS011;696;48.546;9.896;2023-02-01T11:11:20;6.47;;;2.17;;
1402;SDS011;696;48.546;9.896;2023-02-01T11:13:53;11.05;;;2.38;;
1402;SDS011;696;48.546;9.896;2023-02-01T11:16:28;6.28;;;2.47;;
1402;SDS011;696;48.546;9.896;2023-02-01T11:18:55;5.90;;;2.53;;
1402;SDS011;696;48.546;9.896;2023-02-01T11:21:23;2.83;;;1.50;;
1402;SDS011;696;48.546;9.896;2023-02-01T11:23:48;12.07;;;2.00;;
1402;SDS011;696;48.546;9.896;2023-02-01T11:26:15;21.40;;;2.28;;
1402;SDS011;696;48.546;9.896;2023-02-01T11:28:50;7.50;;;2.63;;
1402;SDS011;696;48.546;9.896;2023-02-01T11:31:27;7.93;;;2.35;;
1402;SDS011;696;48.546;9.896;2023-02-01T11:33:54;7.20;;;2.35;;
1402;SDS011;696;48.546;9.896;2023-02-01T11:36:24;4.72;;;2.00;;
1402;SDS011;696;48.546;9.896;2023-02-01T11:38:54;3.60;;;2.03;;
1402;SDS011;696;48.546;9.896;2023-02-01T11:42:03;3.65;;;1.73;;
1402;SDS011;696;48.546;9.896;2023-02-01T11:44:42;5.72;;;2.20;;
1402;SDS011;696;48.546;9.896;2023-02-01T11:47:17;7.13;;;2.15;;
1402;SDS011;696;48.546;9.896;2023-02-01T11:49:47;14.13;;;2.83;;
1402;SDS011;696;48.546;9.896;2023-02-01T12:08:46;7.32;;;2.40;;
1402;SDS011;696;48.546;9.896;2023-02-01T12:35:21;12.10;;;2.00;;
1402;SDS011;696;48.546;9.896;2023-02-01T12:40:41;6.95;;;2.47;;
1402;SDS011;696;48.546;9.896;2023-02-01T12:43:13;6.43;;;2.25;;
1402;SDS011;696;48.546;9.896;2023-02-01T12:45:54;3.08;;;1.63;;
1402;SDS011;696;48.546;9.896;2023-02-01T12:48:29;4.82;;;2.30;;
1402;SDS011;696;48.546;9.896;2023-02-01T12:51:06;6.38;;;1.77;;
1402;SDS011;696;48.546;9.896;2023-02-01T12:56:26;4.90;;;1.90;;
1402;SDS011;696;48.546;9.896;2023-02-01T13:01:22;14.32;;;2.47;;
1402;SDS011;696;48.546;9.896;2023-02-01T13:04:10;4.25;;;1.92;;
1402;SDS011;696;48.546;9.896;2023-02-01T13:06:39;8.02;;;2.25;;
1402;SDS011;696;48.546;9.896;2023-02-01T13:12:09;7.40;;;2.22;;
1402;SDS011;696;48.546;9.896;2023-02-01T13:14:40;6.43;;;1.58;;
1402;SDS011;696;48.546;9.896;2023-02-01T13:17:18;10.73;;;2.35;;
1402;SDS011;696;48.546;9.896;2023-02-01T13:19:49;3.92;;;1.70;;
1402;SDS011;696;48.546;9.896;2023-02-01T13:22:34;9.02;;;2.10;;
1402;SDS011;696;48.546;9.896;2023-02-01T13:25:04;5.55;;;2.08;;
1402;SDS011;696;48.546;9.896;2023-02-01T13:27:38;4.10;;;1.92;;
1402;SDS011;696;48.546;9.896;2023-02-01T13:33:17;6.32;;;2.15;;
1402;SDS011;696;48.546;9.896;2023-02-01T13:35:54;10.50;;;2.35;;
1402;SDS011;696;48.546;9.896;2023-02-01T13:43:43;3.35;;;1.73;;
1402;SDS011;696;48.546;9.896;2023-02-01T13:46:12;9.43;;;2.55;;
1402;SDS011;696;48.546;9.896;2023-02-01T13:48:49;7.03;;;2.10;;
1402;SDS011;696;48.546;9.896;2023-02-01T13:51:28;6.07;;;1.83;;
1402;SDS011;696;48.546;9.896;2023-02-01T13:56:28;7.00;;;2.00;;
1402;SDS011;696;48.546;9.896;2023-02-01T13:59:35;5.85;;;1.88;;
1402;SDS011;696;48.546;9.896;2023-02-01T14:05:02;4.20;;;1.90;;
1402;SDS011;696;48.546;9.896;2023-02-01T14:10:45;6.05;;;2.15;;
1402;SDS011;696;48.546;9.896;2023-02-01T14:16:10;7.50;;;2.30;;
1402;SDS011;696;48.546;9.896;2023-02-01T14:23:47;13.18;;;2.40;;
1402;SDS011;696;48.546;9.896;2023-02-01T14:31:41;4.55;;;2.30;;
1402;SDS011;696;48.546;9.896;2023-02-01T14:34:17;4.20;;;1.60;;
1402;SDS011;696;48.546;9.896;2023-02-01T14:37:03;5.63;;;2.33;;
1402;SDS011;696;48.546;9.896;2023-02-01T14:42:03;5.93;;;1.83;;
1402;SDS011;696;48.546;9.896;2023-02-01T14:47:44;4.55;;;2.05;;
1402;SDS011;696;48.546;9.896;2023-02-01T14:55:52;5.03;;;2.05;;
1402;SDS011;696;48.546;9.896;2023-02-01T14:58:32;4.53;;;2.00;;
1402;SDS011;696;48.546;9.896;2023-02-01T15:03:47;5.95;;;2.05;;
1402;SDS011;696;48.546;9.896;2023-02-01T15:06:18;5.40;;;2.00;;
1402;SDS011;696;48.546;9.896;2023-02-01T15:08:48;5.15;;;2.30;;
1402;SDS011;696;48.546;9.896;2023-02-01T15:11:15;8.70;;;2.70;;
1402;SDS011;696;48.546;9.896;2023-02-01T15:13:47;6.32;;;2.45;;
1402;SDS011;696;48.546;9.896;2023-02-01T15:16:15;6.28;;;2.30;;
1402;SDS011;696;48.546;9.896;2023-02-01T15:18:41;6.72;;;2.22;;
1402;SDS011;696;48.546;9.896;2023-02-01T15:21:14;7.05;;;2.55;;
1402;SDS011;696;48.546;9.896;2023-02-01T15:23:41;5.85;;;2.13;;
1402;SDS011;696;48.546;9.896;2023-02-01T15:26:06;5.20;;;2.17;;
1402;SDS011;696;48.546;9.896;2023-02-01T15:28:32;4.28;;;2.20;;
1402;SDS011;696;48.546;9.896;2023-02-01T15:30:59;8.80;;;2.45;;
1402;SDS011;696;48.546;9.896;2023-02-01T15:33:26;11.55;;;3.00;;
1402;SDS011;696;48.546;9.896;2023-02-01T15:35:54;6.60;;;3.33;;
1402;SDS011;696;48.546;9.896;2023-02-01T15:38:33;4.82;;;2.17;;
1402;SDS011;696;48.546;9.896;2023-02-01T15:41:16;4.88;;;2.45;;
1402;SDS011;696;48.546;9.896;2023-02-01T15:49:02;3.33;;;2.33;;
1402;SDS011;696;48.546;9.896;2023-02-01T15:51:29;8.82;;;3.05;;
1402;SDS011;696;48.546;9.896;2023-02-01T15:54:04;16.67;;;6.55;;
1402;SDS011;696;48.546;9.896;2023-02-01T15:56:36;7.63;;;3.35;;
1402;SDS011;696;48.546;9.896;2023-02-01T15:59:04;11.95;;;2.42;;
1402;SDS011;696;48.546;9.896;2023-02-01T16:01:35;8.70;;;2.83;;
1402;SDS011;696;48.546;9.896;2023-02-01T16:04:14;6.60;;;2.53;;
1402;SDS011;696;48.546;9.896;2023-02-01T16:06:52;5.90;;;2.67;;
1402;SDS011;696;48.546;9.896;2023-02-01T16:09:20;12.23;;;2.85;;
1402;SDS011;696;48.546;9.896;2023-02-01T16:11:54;11.75;;;2.05;;
1402;SDS011;696;48.546;9.896;2023-02-01T16:14:22;12.85;;;2.78;;
1402;SDS011;696;48.546;9.896;2023-02-01T16:16:47;4.93;;;2.20;;
1402;SDS011;696;48.546;9.896;2023-02-01T16:19:13;4.50;;;2.45;;
1402;SDS011;696;48.546;9.896;2023-02-01T16:21:39;24.25;;;2.85;;
1402;SDS011;696;48.546;9.896;2023-02-01T16:24:04;4.35;;;2.03;;
1402;SDS011;696;48.546;9.896;2023-02-01T16:26:30;6.53;;;2.55;;
1402;SDS011;696;48.546;9.896;2023-02-01T16:28:56;4.82;;;2.25;;
1402;SDS011;696;48.546;9.896;2023-02-01T16:31:24;13.52;;;2.88;;
1402;SDS011;696;48.546;9.896;2023-02-01T16:33:52;5.88;;;2.80;;
1402;SDS011;696;48.546;9.896;2023-02-01T16:36:17;4.55;;;2.25;;
1402;SDS011;696;48.546;9.896;2023-02-01T16:38:43;7.47;;;3.03;;
1402;SDS011;696;48.546;9.896;2023-02-01T16:41:12;8.30;;;2.85;;
1402;SDS011;696;48.546;9.896;2023-02-01T16:43:38;5.47;;;2.92;;
1402;SDS011;696;48.546;9.896;2023-02-01T16:46:03;11.35;;;2.90;;
1402;SDS011;696;48.546;9.896;2023-02-01T16:48:35;11.55;;;2.70;;
1402;SDS011;696;48.546;9.896;2023-02-01T16:51:03;10.00;;;2.90;;
1402;SDS011;696;48.546;9.896;2023-02-01T16:53:31;6.40;;;2.80;;
1402;SDS011;696;48.546;9.896;2023-02-01T16:55:57;9.57;;;2.72;;
1402;SDS011;696;48.546;9.896;2023-02-01T16:58:23;4.60;;;2.38;;
1402;SDS011;696;48.546;9.896;2023-02-01T17:00:49;7.20;;;2.60;;
1402;SDS011;696;48.546;9.896;2023-02-01T17:03:16;8.23;;;3.47;;
1402;SDS011;696;48.546;9.896;2023-02-01T17:05:45;11.25;;;4.22;;
1402;SDS011;696;48.546;9.896;2023-02-01T17:08:18;9.05;;;3.55;;
1402;SDS011;696;48.546;9.896;2023-02-01T17:10:45;8.80;;;2.63;;
1402;SDS011;696;48.546;9.896;2023-02-01T17:13:12;5.78;;;2.85;;
1402;SDS011;696;48.546;9.896;2023-02-01T17:15:39;6.68;;;2.72;;
1402;SDS011;696;48.546;9.896;2023-02-01T17:18:05;6.45;;;2.70;;
1402;SDS011;696;48.546;9.896;2023-02-01T17:20:30;14.93;;;2.72;;
1402;SDS011;696;48.546;9.896;2023-02-01T17:22:57;17.73;;;3.47;;
1402;SDS011;696;48.546;9.896;2023-02-01T17:25:22;7.05;;;2.63;;
1402;SDS011;696;48.546;9.896;2023-02-01T17:27:50;6.88;;;3.17;;
1402;SDS011;696;48.546;9.896;2023-02-01T17:30:15;12.45;;;3.03;;
1402;SDS011;696;48.546;9.896;2023-02-01T17:32:41;5.70;;;2.60;;
1402;SDS011;696;48.546;9.896;2023-02-01T17:35:20;6.40;;;2.58;;
1402;SDS011;696;48.546;9.896;2023-02-01T17:37:48;4.95;;;2.25;;
1402;SDS011;696;48.546;9.896;2023-02-01T17:40:14;9.40;;;6.68;;
1402;SDS011;696;48.546;9.896;2023-02-01T17:42:39;12.63;;;3.33;;
1402;SDS011;696;48.546;9.896;2023-02-01T17:45:23;6.63;;;2.53;;
1402;SDS011;696;48.546;9.896;2023-02-01T17:47:52;12.43;;;2.92;;
1402;SDS011;696;48.546;9.896;2023-02-01T17:50:18;15.95;;;2.63;;
1402;SDS011;696;48.546;9.896;2023-02-01T17:52:43;8.60;;;2.47;;
1402;SDS011;696;48.546;9.896;2023-02-01T17:55:16;4.18;;;2.40;;
1402;SDS011;696;48.546;9.896;2023-02-01T17:57:43;6.78;;;2.42;;
1402;SDS011;696;48.546;9.896;2023-02-01T18:00:09;11.50;;;2.55;;
1402;SDS011;696;48.546;9.896;2023-02-01T18:02:35;5.82;;;2.10;;
1402;SDS011;696;48.546;9.896;2023-02-01T18:05:00;22.92;;;2.95;;
1402;SDS011;696;48.546;9.896;2023-02-01T18:07:26;16.98;;;3.42;;
1402;SDS011;696;48.546;9.896;2023-02-01T18:09:51;3.80;;;1.85;;
1402;SDS011;696;48.546;9.896;2023-02-01T18:12:21;11.23;;;2.58;;
1402;SDS011;696;48.546;9.896;2023-02-01T18:14:47;6.03;;;2.38;;
1402;SDS011;696;48.546;9.896;2023-02-01T18:17:12;9.35;;;2.55;;
1402;SDS011;696;48.546;9.896;2023-02-01T18:19:37;4.85;;;2.17;;
1402;SDS011;696;48.546;9.896;2023-02-01T18:22:03;5.03;;;2.22;;
1402;SDS011;696;48.546;9.896;2023-02-01T18:24:29;5.53;;;2.33;;
1402;SDS011;696;48.546;9.896;2023-02-01T18:26:57;14.60;;;3.33;;
1402;SDS011;696;48.546;9.896;2023-02-01T18:29:23;11.20;;;2.53;;